Time;durP1;ratioP1;P1;durP2;ratioP2;P2;SDS_P1;SDS_P2;PMS_P1;PMS_P2;Temp;Humidity;BMP_temperature;BMP_pressure;BME280_temperature;BME280_humidity;BME280_pressure;Samples;Min_cycle;Max_cycle;Signal;HPM_P1;HPM_P2
2023/03/26 00:01:55;;;;;;;14.70;2.75;;;6.80;99.90;;;;;;5073254;28;20044;-25
2023/03/26 00:04:24;;;;;;;24.45;4.13;;;6.80;99.90;;;;;;5073180;28;20425;-25
2023/03/26 00:06:50;;;;;;;24.08;3.70;;;6.90;99.90;;;;;;5073204;28;20094;-25
2023/03/26 00:09:17;;;;;;;18.55;2.55;;;6.80;99.90;;;;;;5073699;28;20044;-25
2023/03/26 00:11:45;;;;;;;17.75;2.53;;;6.90;99.90;;;;;;5073745;28;20047;-25
2023/03/26 00:14:12;;;;;;;23.15;4.05;;;6.80;99.90;;;;;;5073630;28;20490;-25
2023/03/26 00:16:42;;;;;;;17.20;3.35;;;6.70;99.90;;;;;;5073390;28;20398;-25
2023/03/26 00:19:08;;;;;;;24.42;4.30;;;6.60;99.90;;;;;;5073606;28;20075;-25
2023/03/26 00:21:34;;;;;;;26.30;3.80;;;6.40;99.90;;;;;;5073691;28;20440;-25
2023/03/26 00:24:06;;;;;;;21.10;4.60;;;6.10;99.90;;;;;;5074168;28;20048;-25
2023/03/26 00:26:37;;;;;;;18.90;3.67;;;6.00;99.90;;;;;;5074240;28;20491;-25
2023/03/26 00:29:03;;;;;;;17.80;3.80;;;5.90;99.90;;;;;;5073545;28;20040;-25
2023/03/26 00:31:30;;;;;;;21.75;3.13;;;5.80;99.90;;;;;;5073525;28;20170;-25
2023/03/26 00:33:56;;;;;;;22.25;4.55;;;5.90;99.90;;;;;;5073490;28;20486;-25
2023/03/26 00:36:26;;;;;;;22.38;3.38;;;5.90;99.90;;;;;;5072299;28;20051;-25
2023/03/26 00:38:52;;;;;;;18.35;2.70;;;5.90;99.90;;;;;;5073512;28;20380;-24
2023/03/26 00:41:29;;;;;;;21.38;2.75;;;5.90;99.90;;;;;;5072783;28;20145;-25
2023/03/26 00:43:58;;;;;;;18.58;2.95;;;5.90;99.90;;;;;;5076285;28;20080;-25
2023/03/26 00:46:28;;;;;;;17.95;2.67;;;5.80;99.90;;;;;;5077345;28;20052;-25
2023/03/26 00:48:57;;;;;;;17.30;2.70;;;5.80;99.90;;;;;;5077326;28;20052;-25
2023/03/26 00:51:23;;;;;;;21.90;3.08;;;5.80;99.90;;;;;;5077414;28;20048;-24
2023/03/26 00:53:50;;;;;;;20.77;2.95;;;5.80;99.90;;;;;;5077411;28;20058;-25
2023/03/26 00:56:17;;;;;;;21.83;3.08;;;5.80;99.90;;;;;;5077322;28;20052;-25
2023/03/26 00:58:43;;;;;;;13.35;3.67;;;5.90;99.90;;;;;;5078082;28;20051;-25
2023/03/26 01:01:15;;;;;;;18.35;3.17;;;5.90;99.90;;;;;;5077272;28;20123;-24
2023/03/26 01:03:42;;;;;;;12.15;2.45;;;5.90;99.90;;;;;;5077244;28;20083;-25
2023/03/26 01:06:22;;;;;;;17.30;3.50;;;6.00;99.90;;;;;;5077116;28;20079;-25
2023/03/26 01:08:51;;;;;;;21.73;3.60;;;5.90;99.90;;;;;;5076985;28;20087;-24
2023/03/26 01:11:30;;;;;;;20.73;3.65;;;5.90;99.90;;;;;;5076988;28;20061;-25
2023/03/26 01:14:05;;;;;;;26.02;3.33;;;5.80;99.90;;;;;;5077747;28;20114;-24
2023/03/26 01:16:42;;;;;;;15.93;2.92;;;5.70;99.90;;;;;;5076955;28;20491;-25
2023/03/26 01:19:36;;;;;;;18.02;4.28;;;5.70;99.90;;;;;;5076912;28;20083;-24
2023/03/26 01:22:04;;;;;;;16.48;2.10;;;5.70;99.90;;;;;;5076891;28;20380;-24
2023/03/26 01:24:30;;;;;;;17.60;2.72;;;5.60;99.90;;;;;;5076789;28;20087;-24
2023/03/26 01:27:17;;;;;;;19.02;2.83;;;5.50;99.90;;;;;;5077551;28;20048;-24
2023/03/26 01:29:51;;;;;;;20.73;2.83;;;5.50;99.90;;;;;;5077294;28;20045;-24
2023/03/26 01:32:25;;;;;;;18.30;3.22;;;5.60;99.90;;;;;;5076764;28;20540;-24
2023/03/26 01:35:20;;;;;;;18.15;2.50;;;5.60;99.90;;;;;;5075565;28;20110;-24
2023/03/26 01:38:09;;;;;;;24.23;2.70;;;5.70;99.90;;;;;;5075902;28;20492;-24
2023/03/26 01:40:48;;;;;;;16.63;2.55;;;5.80;99.90;;;;;;5076799;28;20083;-24
2023/03/26 01:43:34;;;;;;;23.60;3.85;;;5.80;99.90;;;;;;5076487;28;20084;-24
2023/03/26 01:46:05;;;;;;;20.08;2.97;;;5.80;99.90;;;;;;5076513;28;20127;-24
2023/03/26 01:48:35;;;;;;;17.08;3.05;;;5.80;99.90;;;;;;5076416;28;20056;-24
2023/03/26 01:51:02;;;;;;;22.45;3.58;;;5.80;99.90;;;;;;5076283;28;20135;-25
2023/03/26 01:53:31;;;;;;;18.73;2.70;;;5.80;99.90;;;;;;5075986;28;20045;-24
2023/03/26 01:56:11;;;;;;;21.65;2.90;;;5.90;99.90;;;;;;5076187;28;20123;-24
2023/03/26 01:58:55;;;;;;;21.70;2.95;;;5.90;99.90;;;;;;5076823;28;20045;-24
2023/03/26 02:01:48;;;;;;;29.75;3.67;;;5.90;99.90;;;;;;5076179;28;20048;-24
2023/03/26 02:04:25;;;;;;;14.07;3.17;;;5.90;99.90;;;;;;5076712;28;20052;-24
2023/03/26 02:06:57;;;;;;;24.50;3.15;;;6.00;99.90;;;;;;5076660;28;20052;-25
2023/03/26 02:09:29;;;;;;;40.45;5.72;;;6.00;99.90;;;;;;5074830;28;20044;-24
2023/03/26 02:11:57;;;;;;;15.82;2.55;;;6.00;99.90;;;;;;5075281;28;20391;-25
2023/03/26 02:14:23;;;;;;;16.48;2.72;;;6.00;99.90;;;;;;5075828;28;20502;-24
2023/03/26 02:16:50;;;;;;;21.08;3.72;;;6.00;99.90;;;;;;5076371;28;20056;-24
2023/03/26 02:19:20;;;;;;;19.40;3.60;;;6.00;99.90;;;;;;5075821;28;20123;-24
2023/03/26 02:21:50;;;;;;;20.52;3.22;;;6.00;99.90;;;;;;5075749;28;20528;-24
2023/03/26 02:24:17;;;;;;;21.13;2.97;;;6.00;99.90;;;;;;5075701;28;20114;-24
2023/03/26 02:26:43;;;;;;;13.48;1.92;;;6.00;99.90;;;;;;5075640;28;20044;-24
2023/03/26 02:29:10;;;;;;;20.55;4.05;;;6.00;99.90;;;;;;5074221;28;20041;-25
2023/03/26 02:31:35;;;;;;;26.30;4.13;;;6.00;99.90;;;;;;5075847;28;20079;-24
2023/03/26 02:34:01;;;;;;;28.40;3.60;;;6.00;99.90;;;;;;5075481;28;20400;-24
2023/03/26 02:36:27;;;;;;;16.10;2.88;;;6.00;99.90;;;;;;5076296;28;20049;-24
2023/03/26 02:38:56;;;;;;;16.55;3.20;;;6.00;99.90;;;;;;5075920;28;20048;-24
2023/03/26 02:41:22;;;;;;;23.67;3.60;;;6.00;99.90;;;;;;5075349;28;20040;-24
2023/03/26 02:43:48;;;;;;;25.50;2.70;;;5.90;99.90;;;;;;5074352;28;20056;-24
2023/03/26 02:46:14;;;;;;;21.55;3.92;;;6.00;99.90;;;;;;5075079;28;20048;-24
2023/03/26 02:48:40;;;;;;;15.15;2.70;;;6.00;99.90;;;;;;5075147;28;20048;-24
2023/03/26 02:51:06;;;;;;;20.25;2.58;;;5.90;99.90;;;;;;5075158;28;20479;-24
2023/03/26 02:53:32;;;;;;;20.20;3.10;;;5.90;99.90;;;;;;5075151;28;20059;-24
2023/03/26 02:55:59;;;;;;;23.73;3.95;;;5.90;99.90;;;;;;5075042;28;20048;-24
2023/03/26 02:58:25;;;;;;;18.38;2.60;;;5.90;99.90;;;;;;5074982;28;20494;-24
2023/03/26 03:00:55;;;;;;;19.23;3.22;;;5.90;99.90;;;;;;5074988;28;20041;-24
2023/03/26 03:03:25;;;;;;;20.85;3.10;;;5.80;99.90;;;;;;5074933;28;20157;-24
2023/03/26 03:05:53;;;;;;;23.60;3.38;;;5.80;99.90;;;;;;5073866;28;20391;-24
2023/03/26 03:08:23;;;;;;;23.42;3.22;;;5.80;99.90;;;;;;5073602;28;20506;-24
2023/03/26 03:11:06;;;;;;;13.60;2.95;;;5.80;99.90;;;;;;5057337;28;20037;-24
2023/03/26 03:13:31;;;;;;;20.60;3.08;;;5.80;99.90;;;;;;5073714;28;20052;-23
2023/03/26 03:15:57;;;;;;;22.25;3.33;;;5.80;99.90;;;;;;5074645;28;20052;-24
2023/03/26 03:18:23;;;;;;;22.73;4.35;;;5.70;99.90;;;;;;5074606;28;20047;-24
2023/03/26 03:20:49;;;;;;;20.15;3.03;;;5.60;99.90;;;;;;5074819;28;20131;-24
2023/03/26 03:23:15;;;;;;;25.40;3.58;;;5.50;99.90;;;;;;5074580;28;20044;-24
2023/03/26 03:25:41;;;;;;;17.60;2.70;;;5.50;99.90;;;;;;5073505;28;20487;-24
2023/03/26 03:28:08;;;;;;;24.13;4.68;;;5.40;99.90;;;;;;5074455;28;20071;-24
2023/03/26 03:30:34;;;;;;;20.40;2.50;;;5.40;99.90;;;;;;5074858;28;20045;-24
2023/03/26 03:33:01;;;;;;;16.48;3.03;;;5.30;99.90;;;;;;5074219;28;20383;-24
2023/03/26 03:35:28;;;;;;;20.17;2.35;;;5.10;99.90;;;;;;5074359;28;20056;-23
2023/03/26 03:37:58;;;;;;;22.30;2.63;;;5.10;99.90;;;;;;5074189;28;20044;-24
2023/03/26 03:40:24;;;;;;;18.45;2.47;;;5.00;99.90;;;;;;5074206;28;20045;-23
2023/03/26 03:42:50;;;;;;;21.80;3.15;;;4.80;99.90;;;;;;5074046;28;20052;-24
2023/03/26 03:45:16;;;;;;;18.63;2.65;;;4.80;99.90;;;;;;5074145;28;20067;-23
2023/03/26 03:47:42;;;;;;;18.70;2.55;;;4.70;99.90;;;;;;5073894;28;20052;-23
2023/03/26 03:50:09;;;;;;;22.83;2.45;;;4.70;99.90;;;;;;5073986;28;20049;-23
2023/03/26 03:52:35;;;;;;;23.70;2.92;;;4.70;99.90;;;;;;5073033;28;20076;-23
2023/03/26 03:55:01;;;;;;;16.90;2.55;;;4.70;99.90;;;;;;5072741;28;20141;-24
2023/03/26 03:57:27;;;;;;;22.00;2.47;;;4.80;99.90;;;;;;5073983;28;20041;-23
2023/03/26 03:59:57;;;;;;;16.23;2.25;;;4.80;99.90;;;;;;5073922;28;20051;-23
2023/03/26 04:02:33;;;;;;;32.10;4.13;;;4.90;99.90;;;;;;5072662;28;20502;-23
2023/03/26 04:05:00;;;;;;;19.27;2.60;;;4.90;99.90;;;;;;5072932;28;20051;-23
2023/03/26 04:07:30;;;;;;;22.52;2.53;;;5.00;99.90;;;;;;5072803;28;20140;-24
2023/03/26 04:09:58;;;;;;;20.88;3.83;;;5.00;99.90;;;;;;5074296;28;20040;-24
2023/03/26 04:12:26;;;;;;;20.48;2.55;;;5.00;99.90;;;;;;5073356;28;20386;-23
2023/03/26 04:14:52;;;;;;;22.70;2.80;;;5.10;99.90;;;;;;5073625;28;20044;-23
2023/03/26 04:17:20;;;;;;;21.90;2.55;;;5.10;99.90;;;;;;5073054;28;20040;-23
2023/03/26 04:19:49;;;;;;;15.63;2.72;;;5.20;99.90;;;;;;5073746;28;20056;-24
2023/03/26 04:22:18;;;;;;;19.75;3.33;;;5.30;99.90;;;;;;5073310;28;20494;-23
2023/03/26 04:24:44;;;;;;;20.95;2.83;;;5.40;99.90;;;;;;5073638;28;20048;-23
2023/03/26 04:27:14;;;;;;;22.02;2.92;;;5.40;99.90;;;;;;5073691;28;20056;-23
2023/03/26 04:29:44;;;;;;;21.90;2.60;;;5.40;99.90;;;;;;5074154;28;20045;-24
2023/03/26 04:32:33;;;;;;;22.67;2.80;;;5.40;99.90;;;;;;5073539;28;20048;-24
2023/03/26 04:35:02;;;;;;;23.35;2.95;;;5.50;99.90;;;;;;5073207;28;20131;-23
2023/03/26 04:37:38;;;;;;;23.00;2.97;;;5.40;99.90;;;;;;5072529;28;20052;-23
2023/03/26 04:40:10;;;;;;;19.08;3.13;;;5.40;99.90;;;;;;5073570;28;20044;-23
2023/03/26 04:42:40;;;;;;;20.85;3.10;;;5.40;99.90;;;;;;5074356;28;20044;-23
2023/03/26 04:45:07;;;;;;;19.23;2.50;;;5.40;99.90;;;;;;5073155;28;20510;-23
2023/03/26 04:47:38;;;;;;;18.20;2.40;;;5.40;99.90;;;;;;5073099;28;20056;-23
2023/03/26 04:50:08;;;;;;;19.70;4.07;;;5.40;99.90;;;;;;5073071;28;20492;-24
2023/03/26 04:52:34;;;;;;;18.52;2.13;;;5.40;99.90;;;;;;5073315;28;20048;-24
2023/03/26 04:55:00;;;;;;;15.27;2.22;;;5.40;99.90;;;;;;5073282;28;20123;-24
2023/03/26 04:57:38;;;;;;;21.95;2.63;;;5.40;99.90;;;;;;5072971;28;20132;-23
2023/03/26 05:00:13;;;;;;;25.92;4.88;;;5.40;99.90;;;;;;5073339;28;20128;-23
2023/03/26 05:02:40;;;;;;;20.05;3.67;;;5.40;99.90;;;;;;5074104;28;20072;-24
2023/03/26 05:05:07;;;;;;;18.80;2.60;;;5.30;99.90;;;;;;5073222;28;20052;-23
2023/03/26 05:07:33;;;;;;;19.73;2.10;;;5.40;99.90;;;;;;5073210;28;20074;-24
2023/03/26 05:10:02;;;;;;;14.23;3.20;;;5.40;99.90;;;;;;5072830;28;20044;-24
2023/03/26 05:12:28;;;;;;;13.55;2.00;;;5.40;99.90;;;;;;5072239;28;20513;-23
2023/03/26 05:14:54;;;;;;;22.92;2.78;;;5.40;99.90;;;;;;5073110;28;20056;-23
2023/03/26 05:17:22;;;;;;;20.98;3.13;;;5.40;99.90;;;;;;5073139;28;20044;-23
2023/03/26 05:19:48;;;;;;;19.48;2.40;;;5.40;99.90;;;;;;5073928;28;20067;-23
2023/03/26 05:22:13;;;;;;;18.35;3.35;;;5.40;99.90;;;;;;5073141;28;20494;-23
2023/03/26 05:24:39;;;;;;;17.52;2.45;;;5.40;99.90;;;;;;5073357;28;20052;-23
2023/03/26 05:27:05;;;;;;;21.10;2.85;;;5.30;99.90;;;;;;5073090;28;20045;-23
2023/03/26 05:29:31;;;;;;;25.05;3.13;;;5.30;99.90;;;;;;5075932;28;20044;-23
2023/03/26 05:31:56;;;;;;;17.08;2.53;;;5.30;99.90;;;;;;5075513;28;20048;-23
2023/03/26 05:34:25;;;;;;;23.33;2.67;;;5.30;99.90;;;;;;5076628;28;20394;-23
2023/03/26 05:36:51;;;;;;;23.45;2.42;;;5.30;99.90;;;;;;5077183;28;20475;-23
2023/03/26 05:39:17;;;;;;;12.93;2.55;;;5.30;99.90;;;;;;5076420;28;20102;-23
2023/03/26 05:41:43;;;;;;;21.35;2.25;;;5.30;99.90;;;;;;5077067;28;20383;-23
2023/03/26 05:44:09;;;;;;;15.82;2.20;;;5.30;99.90;;;;;;5076416;28;20071;-23
2023/03/26 05:46:34;;;;;;;20.48;2.65;;;5.30;84.10;;;;;;5074823;28;20060;-23
2023/03/26 05:49:00;;;;;;;18.80;2.75;;;5.40;82.80;;;;;;5075603;28;20056;-23
2023/03/26 05:51:26;;;;;;;16.30;2.20;;;5.40;61.40;;;;;;5075421;28;20070;-23
2023/03/26 05:53:52;;;;;;;19.10;2.80;;;5.40;42.40;;;;;;5076291;28;20040;-23
2023/03/26 05:56:17;;;;;;;23.70;3.15;;;5.40;16.70;;;;;;5076237;28;20084;-23
2023/03/26 05:58:43;;;;;;;19.33;2.85;;;5.40;20.10;;;;;;5076258;28;20416;-23
2023/03/26 06:01:15;;;;;;;16.05;2.78;;;5.40;1.00;;;;;;5075199;28;20055;-23
2023/03/26 06:03:43;;;;;;;14.27;2.05;;;5.50;1.00;;;;;;5076702;28;20090;-23
2023/03/26 06:06:14;;;;;;;25.42;3.13;;;5.50;1.00;;;;;;5076072;28;20093;-23
2023/03/26 06:08:41;;;;;;;14.10;2.47;;;5.50;1.00;;;;;;5076659;28;20401;-23
2023/03/26 06:11:07;;;;;;;21.15;2.58;;;5.50;1.00;;;;;;5058141;28;20052;-23
2023/03/26 06:13:33;;;;;;;18.02;3.00;;;5.60;99.90;;;;;;5076419;28;20052;-23
2023/03/26 06:15:59;;;;;;;15.13;2.58;;;5.60;1.00;;;;;;5059039;28;20101;-23
2023/03/26 06:18:25;;;;;;;15.13;2.13;;;5.60;1.00;;;;;;5075871;28;20051;-23
2023/03/26 06:20:52;;;;;;;19.38;2.53;;;5.60;99.90;;;;;;5076619;28;20037;-23
2023/03/26 06:23:18;;;;;;;17.02;2.38;;;5.60;99.90;;;;;;5074496;28;20394;-23
2023/03/26 06:25:45;;;;;;;25.02;2.42;;;5.70;99.90;;;;;;5074707;28;20487;-23
2023/03/26 06:28:11;;;;;;;14.98;2.17;;;5.70;99.90;;;;;;5076287;28;20360;-23
2023/03/26 06:30:37;;;;;;;14.60;3.20;;;5.80;99.90;;;;;;5074103;28;20036;-23
2023/03/26 06:33:03;;;;;;;23.73;3.40;;;5.80;99.90;;;;;;5075617;28;20059;-23
2023/03/26 06:35:29;;;;;;;16.75;2.97;;;5.90;99.90;;;;;;5075747;28;20049;-23
2023/03/26 06:37:56;;;;;;;17.42;2.38;;;5.90;99.90;;;;;;5076296;28;20071;-23
2023/03/26 06:40:22;;;;;;;13.65;2.55;;;6.00;99.90;;;;;;5074623;28;20052;-23
2023/03/26 06:42:49;;;;;;;14.25;2.38;;;6.10;99.90;;;;;;5074259;28;20395;-23
2023/03/26 06:45:15;;;;;;;16.83;3.10;;;6.20;99.90;;;;;;5074200;28;20060;-23
2023/03/26 06:47:40;;;;;;;17.83;3.03;;;6.20;99.90;;;;;;5075687;28;20084;-23
2023/03/26 06:50:07;;;;;;;14.65;2.25;;;6.30;99.90;;;;;;5074908;28;20072;-23
2023/03/26 06:52:33;;;;;;;16.30;2.53;;;6.40;1.00;;;;;;5074807;28;20052;-23
2023/03/26 06:54:58;;;;;;;22.90;3.58;;;6.40;4.40;;;;;;5074411;28;20049;-23
2023/03/26 06:57:24;;;;;;;14.85;2.08;;;6.50;1.00;;;;;;5074612;28;20044;-23
2023/03/26 06:59:50;;;;;;;15.98;3.22;;;6.60;1.00;;;;;;5057321;28;20044;-23
2023/03/26 07:02:16;;;;;;;18.38;2.72;;;6.60;1.00;;;;;;5075533;28;20178;-23
2023/03/26 07:04:42;;;;;;;19.50;2.10;;;6.60;99.90;;;;;;5073997;28;20048;-23
2023/03/26 07:07:07;;;;;;;15.88;2.60;;;6.60;99.90;;;;;;5074917;28;20048;-23
2023/03/26 07:09:33;;;;;;;22.33;2.67;;;6.70;99.90;;;;;;5074754;28;20044;-23
2023/03/26 07:12:00;;;;;;;25.67;3.35;;;6.70;99.90;;;;;;5074789;28;20094;-23
2023/03/26 07:14:29;;;;;;;15.23;2.05;;;6.80;99.90;;;;;;5073662;28;20128;-23
2023/03/26 07:16:57;;;;;;;15.35;2.33;;;6.80;99.90;;;;;;5074708;28;20048;-22
2023/03/26 07:19:23;;;;;;;14.10;2.25;;;6.90;99.90;;;;;;5074246;28;20355;-23
2023/03/26 07:21:49;;;;;;;20.92;2.95;;;6.90;99.90;;;;;;5074562;28;20052;-23
2023/03/26 07:24:16;;;;;;;24.02;3.85;;;6.90;99.90;;;;;;5075074;28;20122;-23
2023/03/26 07:26:54;;;;;;;18.05;2.95;;;6.80;99.90;;;;;;5074563;28;20048;-23
2023/03/26 07:29:40;;;;;;;12.90;2.05;;;6.80;99.90;;;;;;5074358;28;20094;-23
2023/03/26 07:32:18;;;;;;;16.08;2.60;;;6.70;26.00;;;;;;5074446;28;20044;-23
2023/03/26 07:34:44;;;;;;;16.17;2.38;;;6.60;1.00;;;;;;5074960;28;20056;-23
2023/03/26 07:37:32;;;;;;;16.20;2.97;;;6.60;99.90;;;;;;5074292;28;20126;-22
2023/03/26 07:40:43;;;;;;;16.10;2.40;;;6.60;99.90;;;;;;5074548;28;20478;-23
2023/03/26 07:43:24;;;;;;;14.65;1.80;;;6.70;99.90;;;;;;5068144;28;20137;-22
2023/03/26 07:45:52;;;;;;;18.48;2.63;;;6.70;1.00;;;;;;5074027;28;20045;-22
2023/03/26 07:48:24;;;;;;;14.13;2.88;;;6.70;1.00;;;;;;5074137;28;20545;-22
2023/03/26 07:50:50;;;;;;;16.20;2.10;;;6.70;1.00;;;;;;5074131;28;20376;-22
2023/03/26 07:53:16;;;;;;;11.40;2.22;;;6.80;1.00;;;;;;5073422;28;20051;-22
2023/03/26 07:56:01;;;;;;;16.63;2.17;;;6.70;1.00;;;;;;5074298;28;20044;-22
2023/03/26 07:58:36;;;;;;;21.92;2.80;;;6.80;97.10;;;;;;5074844;28;20524;-23
2023/03/26 08:01:33;;;;;;;17.75;2.22;;;6.90;99.90;;;;;;5073768;28;20036;-22
2023/03/26 08:04:40;;;;;;;15.02;1.80;;;7.00;99.90;;;;;;5073892;28;20044;-22
2023/03/26 08:07:38;;;;;;;15.43;1.95;;;7.10;1.00;;;;;;5073916;28;20529;-22
2023/03/26 08:10:17;;;;;;;13.65;2.05;;;7.20;40.50;;;;;;5074045;28;20048;-22
2023/03/26 08:12:57;;;;;;;13.07;2.17;;;7.10;1.00;;;;;;5073833;28;20486;-23
2023/03/26 08:15:44;;;;;;;22.70;2.88;;;7.20;1.00;;;;;;5072600;28;20044;-22
2023/03/26 08:18:26;;;;;;;20.38;3.22;;;7.50;1.00;;;;;;5074050;28;20049;-22
2023/03/26 08:21:15;;;;;;;15.82;2.15;;;7.80;1.00;;;;;;5073738;28;20123;-22
2023/03/26 08:24:16;;;;;;;12.55;1.77;;;7.90;99.90;;;;;;5073712;28;20044;-22
2023/03/26 08:27:01;;;;;;;13.43;2.55;;;7.80;99.90;;;;;;5073655;28;20048;-22
2023/03/26 08:29:44;;;;;;;17.60;2.63;;;7.70;99.90;;;;;;5073516;28;20049;-22
2023/03/26 08:32:15;;;;;;;18.15;1.83;;;7.70;99.90;;;;;;5073940;28;20076;-22
2023/03/26 08:34:40;;;;;;;13.57;1.77;;;7.70;99.90;;;;;;5074445;28;20051;-22
2023/03/26 08:37:08;;;;;;;15.93;2.42;;;7.70;99.90;;;;;;5073547;28;20044;-22
2023/03/26 08:39:36;;;;;;;16.67;2.22;;;7.70;99.90;;;;;;5073535;28;20046;-23
2023/03/26 08:42:14;;;;;;;12.55;2.65;;;7.70;99.90;;;;;;5073467;28;20040;-23
2023/03/26 08:45:07;;;;;;;14.95;3.10;;;7.80;99.90;;;;;;5073515;28;20052;-22
2023/03/26 08:47:55;;;;;;;12.75;2.42;;;8.00;99.90;;;;;;5073750;28;20064;-22
2023/03/26 08:50:24;;;;;;;13.40;2.10;;;8.10;1.00;;;;;;5073652;28;20059;-22
2023/03/26 08:53:31;;;;;;;17.33;1.98;;;8.20;8.40;;;;;;5073336;28;20063;-22
2023/03/26 08:56:23;;;;;;;16.85;3.38;;;8.30;1.00;;;;;;5071578;28;20048;-22
2023/03/26 08:59:27;;;;;;;10.73;1.90;;;8.40;1.00;;;;;;5071023;28;20055;-22
2023/03/26 09:01:56;;;;;;;14.13;2.33;;;8.60;99.90;;;;;;5072857;28;20059;-22
2023/03/26 09:04:40;;;;;;;17.17;1.90;;;8.60;99.90;;;;;;5075285;28;20513;-22
2023/03/26 09:07:28;;;;;;;10.85;2.33;;;8.60;99.90;;;;;;5076083;28;20074;-22
2023/03/26 09:10:22;;;;;;;12.75;2.20;;;8.80;99.90;;;;;;5077908;28;20088;-22
2023/03/26 09:13:28;;;;;;;10.95;1.70;;;9.10;99.90;;;;;;5076392;28;20056;-22
2023/03/26 09:16:15;;;;;;;11.43;2.22;;;9.30;1.00;;;;;;5076798;28;20052;-22
2023/03/26 09:19:09;;;;;;;8.13;1.58;;;9.30;99.90;;;;;;5076794;28;20094;-22
2023/03/26 09:21:53;;;;;;;;;;;9.20;1.00;;;;;;5076851;28;20475;-22
2023/03/26 09:24:53;;;;;;;12.27;1.50;;;9.10;1.00;;;;;;5076695;28;19920;-22
2023/03/26 09:28:02;;;;;;;12.50;2.03;;;9.20;92.00;;;;;;5077000;28;20115;-22
2023/03/26 09:31:05;;;;;;;11.88;2.17;;;9.10;24.80;;;;;;5075954;28;20052;-22
2023/03/26 09:33:55;;;;;;;16.67;1.95;;;9.10;1.00;;;;;;5077123;28;20048;-22
2023/03/26 09:36:55;;;;;;;11.40;2.08;;;9.00;1.00;;;;;;5076203;28;20540;-22
2023/03/26 09:39:41;;;;;;;13.50;1.85;;;8.90;1.00;;;;;;5075386;28;20095;-23
2023/03/26 09:42:43;;;;;;;15.90;2.40;;;9.00;99.90;;;;;;5076266;28;20048;-22
2023/03/26 09:45:35;;;;;;;17.58;1.92;;;9.00;99.90;;;;;;5075931;28;20044;-22
2023/03/26 09:48:10;;;;;;;10.52;1.58;;;9.00;1.00;;;;;;5076540;28;20486;-22
2023/03/26 09:50:58;;;;;;;15.07;3.08;;;8.80;1.00;;;;;;5076485;28;20380;-22
2023/03/26 09:53:50;;;;;;;11.00;1.85;;;8.80;1.00;;;;;;5076987;28;20083;-22
2023/03/26 09:56:25;;;;;;;14.73;2.00;;;8.70;1.00;;;;;;5076647;28;20044;-22
2023/03/26 09:58:59;;;;;;;17.48;2.15;;;8.70;1.00;;;;;;5075090;28;20059;-22
2023/03/26 10:01:45;;;;;;;10.88;2.95;;;8.70;1.00;;;;;;5076355;28;20449;-22
2023/03/26 10:04:58;;;;;;;17.00;2.42;;;8.60;99.90;;;;;;5076004;28;20132;-22
2023/03/26 10:07:48;;;;;;;11.68;1.73;;;8.60;1.00;;;;;;5073510;28;20060;-23
2023/03/26 10:10:31;;;;;;;10.77;2.60;;;8.70;1.00;;;;;;5074061;28;20127;-22
2023/03/26 10:13:01;;;;;;;12.13;2.78;;;8.60;1.00;;;;;;5074891;28;20527;-22
2023/03/26 10:15:57;;;;;;;11.65;1.90;;;8.60;99.90;;;;;;5074944;28;20110;-22
2023/03/26 10:18:48;;;;;;;12.57;2.10;;;8.60;99.90;;;;;;5075996;28;20052;-22
2023/03/26 10:21:33;;;;;;;8.82;1.35;;;8.70;99.90;;;;;;5075675;28;20546;-22
2023/03/26 10:24:37;;;;;;;12.38;1.90;;;8.70;99.90;;;;;;5076472;28;20422;-22
2023/03/26 10:27:22;;;;;;;7.85;1.77;;;8.60;99.90;;;;;;5076175;28;20080;-22
2023/03/26 10:30:25;;;;;;;14.32;2.30;;;8.60;99.90;;;;;;5075693;28;20040;-22
2023/03/26 10:33:02;;;;;;;9.85;1.48;;;8.80;1.00;;;;;;5075434;28;20052;-22
2023/03/26 10:35:37;;;;;;;9.52;1.80;;;9.10;1.00;;;;;;5075991;28;20048;-22
2023/03/26 10:38:21;;;;;;;13.65;2.17;;;9.00;99.90;;;;;;5075311;28;20049;-22
2023/03/26 10:41:07;;;;;;;10.18;1.17;;;9.00;99.90;;;;;;5075568;28;20052;-22
2023/03/26 10:44:24;;;;;;;20.95;3.33;;;9.00;99.90;;;;;;5075317;28;20490;-22
2023/03/26 10:47:27;;;;;;;12.98;3.10;;;9.20;99.90;;;;;;5075089;28;20114;-22
2023/03/26 10:50:21;;;;;;;12.10;1.60;;;9.50;99.90;;;;;;5075350;28;20079;-22
2023/03/26 10:53:12;;;;;;;13.43;2.13;;;9.70;99.90;;;;;;5075355;28;20056;-22
2023/03/26 10:55:45;;;;;;;15.65;2.70;;;9.70;97.10;;;;;;5075049;28;20044;-22
2023/03/26 10:58:30;;;;;;;10.68;1.88;;;9.70;99.90;;;;;;5075762;28;20048;-22
2023/03/26 11:01:02;;;;;;;10.98;1.83;;;9.90;99.90;;;;;;5074738;28;20493;-22
2023/03/26 11:03:50;;;;;;;12.85;1.65;;;10.00;99.90;;;;;;5073762;28;20175;-22
2023/03/26 11:06:37;;;;;;;16.90;2.33;;;10.20;99.90;;;;;;5075648;28;20105;-23
2023/03/26 11:09:18;;;;;;;11.50;1.80;;;10.30;99.90;;;;;;5074545;28;20048;-22
2023/03/26 11:12:02;;;;;;;12.32;1.58;;;9.90;1.00;;;;;;5074915;28;20464;-22
2023/03/26 11:14:32;;;;;;;12.73;1.50;;;9.60;94.30;;;;;;5074541;28;20135;-22
2023/03/26 11:17:19;;;;;;;13.55;2.03;;;9.40;99.90;;;;;;5074598;28;20048;-22
2023/03/26 11:19:54;;;;;;;14.00;2.45;;;9.30;99.90;;;;;;5074101;28;20086;-22
2023/03/26 11:22:32;;;;;;;9.43;1.83;;;9.00;23.10;;;;;;5074512;28;20047;-22
2023/03/26 11:25:16;;;;;;;7.53;1.75;;;8.90;71.10;;;;;;5074393;28;20098;-22
2023/03/26 11:28:12;;;;;;;10.38;1.80;;;8.90;90.70;;;;;;5073100;28;20106;-22
2023/03/26 11:31:11;;;;;;;12.30;1.98;;;9.00;1.00;;;;;;5073633;28;20368;-22
2023/03/26 11:33:43;;;;;;;16.77;2.38;;;9.10;6.70;;;;;;5074042;28;20474;-22
2023/03/26 11:36:15;;;;;;;9.60;2.30;;;9.20;99.90;;;;;;5056890;28;20056;-22
2023/03/26 11:38:45;;;;;;;10.25;2.08;;;9.50;99.90;;;;;;5074033;28;20094;-22
2023/03/26 11:41:19;;;;;;;15.55;2.95;;;9.70;20.20;;;;;;5074746;28;20083;-22
2023/03/26 11:43:51;;;;;;;13.70;3.08;;;9.70;4.60;;;;;;5074161;28;20048;-22
2023/03/26 11:46:20;;;;;;;8.82;1.45;;;9.50;1.00;;;;;;5073932;28;20052;-21
2023/03/26 11:49:02;;;;;;;11.93;1.95;;;9.40;1.00;;;;;;5074233;28;20402;-21
2023/03/26 11:51:31;;;;;;;10.63;2.25;;;9.40;6.40;;;;;;5073965;28;20055;-22
2023/03/26 11:53:57;;;;;;;10.60;1.63;;;9.10;1.00;;;;;;5073937;28;20052;-21
2023/03/26 11:56:37;;;;;;;12.25;1.88;;;9.00;1.00;;;;;;5074430;28;20041;-21
2023/03/26 11:59:17;;;;;;;8.98;1.90;;;9.00;1.00;;;;;;5074549;28;20048;-22
2023/03/26 12:02:03;;;;;;;11.93;1.75;;;9.00;1.00;;;;;;5074494;28;20080;-22
2023/03/26 12:04:41;;;;;;;10.32;1.65;;;9.10;1.00;;;;;;5073412;28;20105;-22
2023/03/26 12:07:21;;;;;;;12.20;2.38;;;9.20;1.00;;;;;;5074360;28;20174;-22
2023/03/26 12:09:52;;;;;;;12.32;2.17;;;9.00;1.00;;;;;;5073808;28;20049;-21
2023/03/26 12:12:19;;;;;;;12.82;2.78;;;9.00;1.00;;;;;;5073782;28;20052;-21
2023/03/26 12:14:46;;;;;;;8.00;1.77;;;8.90;1.00;;;;;;5073664;28;20051;-21
2023/03/26 12:17:24;;;;;;;10.80;1.60;;;9.00;1.00;;;;;;5072529;28;20044;-21
2023/03/26 12:19:50;;;;;;;13.80;1.52;;;9.10;1.00;;;;;;5072654;28;20044;-21
2023/03/26 12:22:36;;;;;;;14.52;1.88;;;9.30;1.00;;;;;;5039428;28;20048;-21
2023/03/26 12:25:13;;;;;;;11.07;1.98;;;9.50;1.00;;;;;;5074177;28;20044;-22
2023/03/26 12:27:56;;;;;;;13.35;2.25;;;9.70;1.00;;;;;;5073500;28;20052;-21
2023/03/26 12:30:25;;;;;;;10.70;1.92;;;10.10;17.10;;;;;;5064519;28;20040;-22
2023/03/26 12:32:55;;;;;;;7.30;1.50;;;10.30;59.60;;;;;;5052821;28;20487;-21
2023/03/26 12:35:26;;;;;;;10.15;1.98;;;10.20;1.00;;;;;;5053850;28;20045;-22
2023/03/26 12:37:53;;;;;;;10.73;1.85;;;9.90;1.00;;;;;;5055436;28;20534;-22
2023/03/26 12:40:35;;;;;;;13.55;1.73;;;9.60;1.00;;;;;;5058918;28;20119;-22
2023/03/26 12:43:03;;;;;;;10.73;1.58;;;9.50;1.00;;;;;;5059377;28;20518;-21
2023/03/26 12:45:36;;;;;;;9.45;1.58;;;9.30;1.00;;;;;;5060137;28;20084;-21
2023/03/26 12:48:03;;;;;;;9.88;2.00;;;9.20;1.00;;;;;;5059750;28;20053;-21
2023/03/26 12:50:55;;;;;;;14.98;1.75;;;9.20;1.00;;;;;;5059980;28;20068;-21
2023/03/26 12:53:49;;;;;;;7.97;1.48;;;9.30;1.00;;;;;;5061329;28;20064;-21
2023/03/26 12:56:26;;;;;;;9.13;1.42;;;9.30;1.00;;;;;;5060289;28;20060;-21
2023/03/26 12:59:33;;;;;;;12.57;2.22;;;9.20;1.00;;;;;;5060625;28;20137;-22
2023/03/26 13:02:34;;;;;;;12.23;2.55;;;9.10;1.00;;;;;;5059705;28;20095;-21
2023/03/26 13:05:40;;;;;;;12.25;1.35;;;9.10;1.00;;;;;;5060798;28;20045;-21
2023/03/26 13:08:47;;;;;;;11.05;1.83;;;9.10;1.00;;;;;;5059899;28;20414;-21
2023/03/26 13:11:28;;;;;;;12.50;3.67;;;9.20;1.00;;;;;;5066767;28;20049;-21
2023/03/26 13:14:23;;;;;;;7.40;1.00;;;9.40;1.00;;;;;;5060519;28;20098;-21
2023/03/26 13:17:10;;;;;;;7.78;1.55;;;9.10;1.00;;;;;;5060391;28;20094;-21
2023/03/26 13:20:10;;;;;;;11.15;1.55;;;9.10;1.00;;;;;;5059150;28;20048;-21
2023/03/26 13:22:39;;;;;;;11.73;1.80;;;8.90;1.00;;;;;;5059748;28;20483;-21
2023/03/26 13:25:25;;;;;;;11.13;1.60;;;8.80;1.00;;;;;;5059559;28;20128;-21
2023/03/26 13:28:12;;;;;;;8.48;1.20;;;8.60;1.00;;;;;;5060508;28;20131;-21
2023/03/26 13:30:56;;;;;;;7.72;1.10;;;8.50;1.00;;;;;;5060496;28;20045;-21
2023/03/26 13:33:47;;;;;;;11.38;1.65;;;8.40;1.00;;;;;;5059008;28;20063;-21